sensor_id;sensor_type;location;lat;lon;timestamp;P1;durP1;ratioP1;P2;durP2;ratioP2
7929;SDS011;4010;42.698;23.124;2022-08-03T00:00:52;2.80;;;1.67;;
7929;SDS011;4010;42.698;23.124;2022-08-03T00:03:18;1.60;;;1.50;;
7929;SDS011;4010;42.698;23.124;2022-08-03T00:05:47;1.50;;;1.40;;
7929;SDS011;4010;42.698;23.124;2022-08-03T00:08:13;1.87;;;1.77;;
7929;SDS011;4010;42.698;23.124;2022-08-03T00:10:40;2.00;;;1.60;;
7929;SDS011;4010;42.698;23.124;2022-08-03T00:13:07;1.80;;;1.70;;
7929;SDS011;4010;42.698;23.124;2022-08-03T00:15:36;2.00;;;1.80;;
7929;SDS011;4010;42.698;23.124;2022-08-03T00:18:03;3.83;;;1.80;;
7929;SDS011;4010;42.698;23.124;2022-08-03T00:20:30;2.43;;;1.57;;
7929;SDS011;4010;42.698;23.124;2022-08-03T00:22:58;2.13;;;1.93;;
7929;SDS011;4010;42.698;23.124;2022-08-03T00:25:25;1.90;;;1.80;;
7929;SDS011;4010;42.698;23.124;2022-08-03T00:27:52;1.87;;;1.77;;
7929;SDS011;4010;42.698;23.124;2022-08-03T00:30:19;1.67;;;1.57;;
7929;SDS011;4010;42.698;23.124;2022-08-03T00:32:45;2.80;;;1.97;;
7929;SDS011;4010;42.698;23.124;2022-08-03T00:35:12;2.00;;;1.90;;
7929;SDS011;4010;42.698;23.124;2022-08-03T00:37:39;2.80;;;1.90;;
7929;SDS011;4010;42.698;23.124;2022-08-03T00:40:08;2.00;;;1.90;;
7929;SDS011;4010;42.698;23.124;2022-08-03T00:42:44;2.40;;;1.90;;
7929;SDS011;4010;42.698;23.124;2022-08-03T00:45:12;2.40;;;1.67;;
7929;SDS011;4010;42.698;23.124;2022-08-03T00:47:39;1.83;;;1.73;;
7929;SDS011;4010;42.698;23.124;2022-08-03T00:50:06;3.60;;;2.03;;
7929;SDS011;4010;42.698;23.124;2022-08-03T00:52:33;2.07;;;1.97;;
7929;SDS011;4010;42.698;23.124;2022-08-03T00:55:00;2.20;;;2.10;;
7929;SDS011;4010;42.698;23.124;2022-08-03T00:57:28;2.23;;;1.90;;
7929;SDS011;4010;42.698;23.124;2022-08-03T00:59:55;2.30;;;2.10;;
7929;SDS011;4010;42.698;23.124;2022-08-03T01:02:24;2.00;;;1.90;;
7929;SDS011;4010;42.698;23.124;2022-08-03T01:04:50;5.43;;;2.10;;
7929;SDS011;4010;42.698;23.124;2022-08-03T01:07:19;2.13;;;2.03;;
7929;SDS011;4010;42.698;23.124;2022-08-03T01:09:54;2.13;;;1.93;;
7929;SDS011;4010;42.698;23.124;2022-08-03T01:12:30;2.17;;;2.07;;
7929;SDS011;4010;42.698;23.124;2022-08-03T01:15:02;2.50;;;2.30;;
7929;SDS011;4010;42.698;23.124;2022-08-03T01:17:35;2.80;;;2.60;;
7929;SDS011;4010;42.698;23.124;2022-08-03T01:20:10;2.40;;;2.20;;
7929;SDS011;4010;42.698;23.124;2022-08-03T01:22:56;2.30;;;2.20;;
7929;SDS011;4010;42.698;23.124;2022-08-03T01:25:34;2.40;;;2.30;;
7929;SDS011;4010;42.698;23.124;2022-08-03T01:28:17;2.50;;;2.30;;
7929;SDS011;4010;42.698;23.124;2022-08-03T01:30:55;3.10;;;2.30;;
7929;SDS011;4010;42.698;23.124;2022-08-03T01:33:27;2.97;;;2.40;;
7929;SDS011;4010;42.698;23.124;2022-08-03T01:36:01;2.07;;;1.97;;
7929;SDS011;4010;42.698;23.124;2022-08-03T01:38:33;2.80;;;2.60;;
7929;SDS011;4010;42.698;23.124;2022-08-03T01:41:01;2.50;;;2.30;;
7929;SDS011;4010;42.698;23.124;2022-08-03T01:43:31;2.60;;;2.40;;
7929;SDS011;4010;42.698;23.124;2022-08-03T01:45:59;4.57;;;2.83;;
7929;SDS011;4010;42.698;23.124;2022-08-03T01:48:28;3.17;;;2.77;;
7929;SDS011;4010;42.698;23.124;2022-08-03T01:50:56;2.70;;;2.50;;
7929;SDS011;4010;42.698;23.124;2022-08-03T01:53:25;3.47;;;2.43;;
7929;SDS011;4010;42.698;23.124;2022-08-03T01:55:54;3.00;;;2.10;;
7929;SDS011;4010;42.698;23.124;2022-08-03T01:58:22;2.63;;;2.30;;
7929;SDS011;4010;42.698;23.124;2022-08-03T02:00:50;3.00;;;2.70;;
7929;SDS011;4010;42.698;23.124;2022-08-03T02:03:24;2.50;;;2.30;;
7929;SDS011;4010;42.698;23.124;2022-08-03T02:05:53;2.67;;;2.47;;
7929;SDS011;4010;42.698;23.124;2022-08-03T02:08:23;2.60;;;2.40;;
7929;SDS011;4010;42.698;23.124;2022-08-03T02:10:52;2.50;;;2.30;;
7929;SDS011;4010;42.698;23.124;2022-08-03T02:13:22;2.70;;;2.50;;
7929;SDS011;4010;42.698;23.124;2022-08-03T02:15:50;3.37;;;2.33;;
7929;SDS011;4010;42.698;23.124;2022-08-03T02:18:19;2.47;;;2.37;;
7929;SDS011;4010;42.698;23.124;2022-08-03T02:20:48;3.23;;;2.30;;
7929;SDS011;4010;42.698;23.124;2022-08-03T02:23:15;2.50;;;2.30;;
7929;SDS011;4010;42.698;23.124;2022-08-03T02:25:43;2.80;;;2.40;;
7929;SDS011;4010;42.698;23.124;2022-08-03T02:28:15;2.77;;;2.50;;
7929;SDS011;4010;42.698;23.124;2022-08-03T02:30:45;2.97;;;2.43;;
7929;SDS011;4010;42.698;23.124;2022-08-03T02:33:15;3.53;;;2.60;;
7929;SDS011;4010;42.698;23.124;2022-08-03T02:35:48;2.53;;;2.33;;
7929;SDS011;4010;42.698;23.124;2022-08-03T02:38:17;2.17;;;2.07;;
7929;SDS011;4010;42.698;23.124;2022-08-03T02:40:46;2.80;;;2.60;;
7929;SDS011;4010;42.698;23.124;2022-08-03T02:43:17;2.80;;;2.40;;
7929;SDS011;4010;42.698;23.124;2022-08-03T02:45:47;3.10;;;2.80;;
7929;SDS011;4010;42.698;23.124;2022-08-03T02:48:16;2.77;;;2.40;;
7929;SDS011;4010;42.698;23.124;2022-08-03T02:50:46;3.27;;;2.63;;
7929;SDS011;4010;42.698;23.124;2022-08-03T02:53:17;2.60;;;2.40;;
7929;SDS011;4010;42.698;23.124;2022-08-03T02:55:45;7.00;;;2.83;;
7929;SDS011;4010;42.698;23.124;2022-08-03T02:58:14;2.70;;;2.50;;
7929;SDS011;4010;42.698;23.124;2022-08-03T03:00:45;2.83;;;2.60;;
7929;SDS011;4010;42.698;23.124;2022-08-03T03:03:13;6.33;;;3.00;;
7929;SDS011;4010;42.698;23.124;2022-08-03T03:05:40;3.27;;;2.97;;
7929;SDS011;4010;42.698;23.124;2022-08-03T03:08:10;2.90;;;2.70;;
7929;SDS011;4010;42.698;23.124;2022-08-03T03:10:39;2.93;;;2.70;;
7929;SDS011;4010;42.698;23.124;2022-08-03T03:13:06;4.17;;;3.37;;
7929;SDS011;4010;42.698;23.124;2022-08-03T03:15:34;2.90;;;2.70;;
7929;SDS011;4010;42.698;23.124;2022-08-03T03:18:03;2.63;;;2.43;;
7929;SDS011;4010;42.698;23.124;2022-08-03T03:20:34;3.73;;;2.83;;
7929;SDS011;4010;42.698;23.124;2022-08-03T03:23:02;3.17;;;2.97;;
7929;SDS011;4010;42.698;23.124;2022-08-03T03:25:31;5.27;;;3.00;;
7929;SDS011;4010;42.698;23.124;2022-08-03T03:27:59;3.23;;;2.97;;
7929;SDS011;4010;42.698;23.124;2022-08-03T03:30:26;3.37;;;3.07;;
7929;SDS011;4010;42.698;23.124;2022-08-03T03:32:54;3.30;;;3.00;;
7929;SDS011;4010;42.698;23.124;2022-08-03T03:35:22;2.97;;;2.70;;
7929;SDS011;4010;42.698;23.124;2022-08-03T03:37:49;3.03;;;2.83;;
7929;SDS011;4010;42.698;23.124;2022-08-03T03:40:17;3.53;;;3.17;;
7929;SDS011;4010;42.698;23.124;2022-08-03T03:42:45;3.40;;;3.10;;
7929;SDS011;4010;42.698;23.124;2022-08-03T03:45:13;3.43;;;3.13;;
7929;SDS011;4010;42.698;23.124;2022-08-03T03:47:40;3.40;;;3.10;;
7929;SDS011;4010;42.698;23.124;2022-08-03T03:50:07;5.53;;;3.00;;
7929;SDS011;4010;42.698;23.124;2022-08-03T03:52:35;4.27;;;3.17;;
7929;SDS011;4010;42.698;23.124;2022-08-03T03:55:02;6.47;;;3.23;;
7929;SDS011;4010;42.698;23.124;2022-08-03T03:57:29;3.70;;;3.33;;
7929;SDS011;4010;42.698;23.124;2022-08-03T03:59:57;3.20;;;2.90;;
7929;SDS011;4010;42.698;23.124;2022-08-03T04:02:24;3.00;;;2.70;;
7929;SDS011;4010;42.698;23.124;2022-08-03T04:04:51;4.17;;;3.77;;
7929;SDS011;4010;42.698;23.124;2022-08-03T04:07:36;2.30;;;1.77;;
7929;SDS011;4010;42.698;23.124;2022-08-03T04:10:32;3.43;;;2.83;;
7929;SDS011;4010;42.698;23.124;2022-08-03T04:13:18;3.33;;;2.60;;
7929;SDS011;4010;42.698;23.124;2022-08-03T04:15:48;3.43;;;2.47;;
7929;SDS011;4010;42.698;23.124;2022-08-03T04:18:16;3.17;;;2.50;;
7929;SDS011;4010;42.698;23.124;2022-08-03T04:20:44;4.23;;;2.37;;
7929;SDS011;4010;42.698;23.124;2022-08-03T04:23:14;3.27;;;2.20;;
7929;SDS011;4010;42.698;23.124;2022-08-03T04:25:43;2.70;;;1.90;;
7929;SDS011;4010;42.698;23.124;2022-08-03T04:28:12;2.20;;;2.00;;
7929;SDS011;4010;42.698;23.124;2022-08-03T04:30:40;2.60;;;2.40;;
7929;SDS011;4010;42.698;23.124;2022-08-03T04:33:13;2.73;;;2.53;;
7929;SDS011;4010;42.698;23.124;2022-08-03T04:35:43;2.73;;;2.30;;
7929;SDS011;4010;42.698;23.124;2022-08-03T04:38:13;2.57;;;2.40;;
7929;SDS011;4010;42.698;23.124;2022-08-03T04:40:43;2.30;;;2.10;;
7929;SDS011;4010;42.698;23.124;2022-08-03T04:43:12;3.50;;;2.57;;
7929;SDS011;4010;42.698;23.124;2022-08-03T04:45:41;2.70;;;2.50;;
7929;SDS011;4010;42.698;23.124;2022-08-03T04:48:13;2.50;;;2.30;;
7929;SDS011;4010;42.698;23.124;2022-08-03T04:50:41;2.47;;;2.27;;
7929;SDS011;4010;42.698;23.124;2022-08-03T04:53:08;2.77;;;2.57;;
7929;SDS011;4010;42.698;23.124;2022-08-03T04:55:35;2.50;;;2.30;;
7929;SDS011;4010;42.698;23.124;2022-08-03T04:58:02;2.40;;;2.27;;
7929;SDS011;4010;42.698;23.124;2022-08-03T05:00:30;2.47;;;2.30;;
7929;SDS011;4010;42.698;23.124;2022-08-03T05:02:57;2.80;;;2.60;;
7929;SDS011;4010;42.698;23.124;2022-08-03T05:05:25;4.20;;;2.73;;
7929;SDS011;4010;42.698;23.124;2022-08-03T05:07:52;2.73;;;2.40;;
7929;SDS011;4010;42.698;23.124;2022-08-03T05:10:18;2.50;;;2.30;;
7929;SDS011;4010;42.698;23.124;2022-08-03T05:12:46;2.93;;;2.40;;
7929;SDS011;4010;42.698;23.124;2022-08-03T05:15:15;6.83;;;4.80;;
7929;SDS011;4010;42.698;23.124;2022-08-03T05:17:42;3.77;;;3.10;;
7929;SDS011;4010;42.698;23.124;2022-08-03T05:20:09;3.20;;;2.90;;
7929;SDS011;4010;42.698;23.124;2022-08-03T05:22:38;2.67;;;2.47;;
7929;SDS011;4010;42.698;23.124;2022-08-03T05:25:05;2.70;;;2.53;;
7929;SDS011;4010;42.698;23.124;2022-08-03T05:27:32;2.90;;;2.70;;
7929;SDS011;4010;42.698;23.124;2022-08-03T05:29:59;2.50;;;2.33;;
7929;SDS011;4010;42.698;23.124;2022-08-03T05:32:26;2.60;;;2.10;;
7929;SDS011;4010;42.698;23.124;2022-08-03T05:34:52;2.40;;;2.30;;
7929;SDS011;4010;42.698;23.124;2022-08-03T05:37:19;2.90;;;2.57;;
7929;SDS011;4010;42.698;23.124;2022-08-03T05:39:47;2.07;;;1.97;;
7929;SDS011;4010;42.698;23.124;2022-08-03T05:42:14;2.63;;;2.40;;
7929;SDS011;4010;42.698;23.124;2022-08-03T05:44:41;2.50;;;2.30;;
7929;SDS011;4010;42.698;23.124;2022-08-03T05:47:07;2.50;;;2.30;;
7929;SDS011;4010;42.698;23.124;2022-08-03T05:49:34;2.17;;;2.07;;
7929;SDS011;4010;42.698;23.124;2022-08-03T05:52:01;2.40;;;2.20;;
7929;SDS011;4010;42.698;23.124;2022-08-03T05:54:28;2.57;;;1.97;;
7929;SDS011;4010;42.698;23.124;2022-08-03T05:56:56;2.47;;;2.27;;
7929;SDS011;4010;42.698;23.124;2022-08-03T05:59:23;4.43;;;2.50;;
7929;SDS011;4010;42.698;23.124;2022-08-03T06:01:50;2.30;;;2.10;;
7929;SDS011;4010;42.698;23.124;2022-08-03T06:04:17;2.60;;;2.40;;
7929;SDS011;4010;42.698;23.124;2022-08-03T06:06:43;2.90;;;2.50;;
7929;SDS011;4010;42.698;23.124;2022-08-03T06:09:10;3.20;;;2.30;;
7929;SDS011;4010;42.698;23.124;2022-08-03T06:11:37;4.20;;;2.43;;
7929;SDS011;4010;42.698;23.124;2022-08-03T06:14:05;2.60;;;2.50;;
7929;SDS011;4010;42.698;23.124;2022-08-03T06:16:32;2.80;;;2.60;;
7929;SDS011;4010;42.698;23.124;2022-08-03T06:18:59;3.10;;;2.73;;
7929;SDS011;4010;42.698;23.124;2022-08-03T06:21:26;2.83;;;2.47;;
7929;SDS011;4010;42.698;23.124;2022-08-03T06:23:53;3.33;;;2.50;;
7929;SDS011;4010;42.698;23.124;2022-08-03T06:26:19;3.03;;;2.67;;
7929;SDS011;4010;42.698;23.124;2022-08-03T06:28:46;3.63;;;2.60;;
7929;SDS011;4010;42.698;23.124;2022-08-03T06:31:15;3.07;;;2.87;;
7929;SDS011;4010;42.698;23.124;2022-08-03T06:33:41;3.10;;;2.90;;
7929;SDS011;4010;42.698;23.124;2022-08-03T06:36:08;2.93;;;2.60;;
7929;SDS011;4010;42.698;23.124;2022-08-03T06:38:35;3.90;;;2.47;;
7929;SDS011;4010;42.698;23.124;2022-08-03T06:41:01;2.67;;;2.47;;
7929;SDS011;4010;42.698;23.124;2022-08-03T06:43:28;2.63;;;2.27;;
7929;SDS011;4010;42.698;23.124;2022-08-03T06:45:55;2.93;;;2.73;;
7929;SDS011;4010;42.698;23.124;2022-08-03T06:48:23;2.70;;;2.50;;
7929;SDS011;4010;42.698;23.124;2022-08-03T06:50:49;2.57;;;2.37;;
7929;SDS011;4010;42.698;23.124;2022-08-03T06:53:16;2.80;;;2.60;;
7929;SDS011;4010;42.698;23.124;2022-08-03T06:55:43;2.93;;;2.70;;
7929;SDS011;4010;42.698;23.124;2022-08-03T06:58:10;2.60;;;2.40;;
7929;SDS011;4010;42.698;23.124;2022-08-03T07:00:36;2.83;;;2.63;;
7929;SDS011;4010;42.698;23.124;2022-08-03T07:03:03;2.87;;;2.57;;
7929;SDS011;4010;42.698;23.124;2022-08-03T07:05:38;2.70;;;2.50;;
7929;SDS011;4010;42.698;23.124;2022-08-03T07:08:06;2.90;;;2.53;;
7929;SDS011;4010;42.698;23.124;2022-08-03T07:10:39;3.80;;;2.20;;
7929;SDS011;4010;42.698;23.124;2022-08-03T07:13:07;2.83;;;2.30;;
7929;SDS011;4010;42.698;23.124;2022-08-03T07:18:05;3.13;;;2.37;;
7929;SDS011;4010;42.698;23.124;2022-08-03T07:20:32;2.47;;;2.37;;
7929;SDS011;4010;42.698;23.124;2022-08-03T07:23:00;2.60;;;2.40;;
7929;SDS011;4010;42.698;23.124;2022-08-03T07:25:27;2.40;;;2.27;;
7929;SDS011;4010;42.698;23.124;2022-08-03T07:27:54;2.73;;;2.30;;
7929;SDS011;4010;42.698;23.124;2022-08-03T07:30:20;2.77;;;2.53;;
7929;SDS011;4010;42.698;23.124;2022-08-03T07:32:47;2.60;;;2.40;;
7929;SDS011;4010;42.698;23.124;2022-08-03T07:35:14;2.47;;;2.30;;
7929;SDS011;4010;42.698;23.124;2022-08-03T07:37:40;4.03;;;2.40;;
7929;SDS011;4010;42.698;23.124;2022-08-03T07:40:09;4.30;;;2.33;;
7929;SDS011;4010;42.698;23.124;2022-08-03T07:42:36;3.17;;;2.30;;
7929;SDS011;4010;42.698;23.124;2022-08-03T07:45:02;2.77;;;2.57;;
7929;SDS011;4010;42.698;23.124;2022-08-03T07:47:30;2.80;;;2.60;;
7929;SDS011;4010;42.698;23.124;2022-08-03T07:49:57;2.77;;;2.53;;
7929;SDS011;4010;42.698;23.124;2022-08-03T07:52:24;2.67;;;2.57;;
7929;SDS011;4010;42.698;23.124;2022-08-03T07:55:09;2.50;;;2.30;;
7929;SDS011;4010;42.698;23.124;2022-08-03T07:57:36;2.63;;;2.43;;
7929;SDS011;4010;42.698;23.124;2022-08-03T08:00:03;4.57;;;2.47;;
7929;SDS011;4010;42.698;23.124;2022-08-03T08:02:33;3.00;;;2.40;;
7929;SDS011;4010;42.698;23.124;2022-08-03T08:05:00;2.50;;;2.30;;
7929;SDS011;4010;42.698;23.124;2022-08-03T08:07:29;2.97;;;2.77;;
7929;SDS011;4010;42.698;23.124;2022-08-03T08:09:56;2.50;;;2.30;;
7929;SDS011;4010;42.698;23.124;2022-08-03T08:12:24;2.60;;;2.30;;
7929;SDS011;4010;42.698;23.124;2022-08-03T08:14:51;2.30;;;2.10;;
7929;SDS011;4010;42.698;23.124;2022-08-03T08:17:18;2.73;;;2.53;;
7929;SDS011;4010;42.698;23.124;2022-08-03T08:19:45;2.10;;;2.00;;
7929;SDS011;4010;42.698;23.124;2022-08-03T08:22:11;2.03;;;1.93;;
7929;SDS011;4010;42.698;23.124;2022-08-03T08:24:38;2.30;;;2.20;;
7929;SDS011;4010;42.698;23.124;2022-08-03T08:27:05;2.10;;;2.00;;
7929;SDS011;4010;42.698;23.124;2022-08-03T08:29:34;2.20;;;2.10;;
7929;SDS011;4010;42.698;23.124;2022-08-03T08:32:00;2.23;;;2.13;;
7929;SDS011;4010;42.698;23.124;2022-08-03T08:34:27;2.27;;;2.17;;
7929;SDS011;4010;42.698;23.124;2022-08-03T08:36:54;2.20;;;2.10;;
7929;SDS011;4010;42.698;23.124;2022-08-03T08:39:21;2.97;;;2.77;;
7929;SDS011;4010;42.698;23.124;2022-08-03T08:41:49;3.33;;;3.03;;
7929;SDS011;4010;42.698;23.124;2022-08-03T08:44:16;2.90;;;2.30;;
7929;SDS011;4010;42.698;23.124;2022-08-03T08:46:44;2.30;;;1.93;;
7929;SDS011;4010;42.698;23.124;2022-08-03T08:49:12;2.70;;;2.27;;
7929;SDS011;4010;42.698;23.124;2022-08-03T08:51:43;2.40;;;2.20;;
7929;SDS011;4010;42.698;23.124;2022-08-03T08:54:13;2.30;;;2.10;;
7929;SDS011;4010;42.698;23.124;2022-08-03T08:56:41;4.03;;;2.43;;
7929;SDS011;4010;42.698;23.124;2022-08-03T08:59:09;2.40;;;2.30;;
7929;SDS011;4010;42.698;23.124;2022-08-03T09:01:36;3.70;;;2.30;;
7929;SDS011;4010;42.698;23.124;2022-08-03T09:04:06;2.23;;;2.13;;
7929;SDS011;4010;42.698;23.124;2022-08-03T09:06:34;2.50;;;2.30;;
7929;SDS011;4010;42.698;23.124;2022-08-03T09:09:00;3.00;;;1.90;;
7929;SDS011;4010;42.698;23.124;2022-08-03T09:11:27;2.47;;;2.17;;
7929;SDS011;4010;42.698;23.124;2022-08-03T09:13:57;2.17;;;1.97;;
7929;SDS011;4010;42.698;23.124;2022-08-03T09:16:24;2.40;;;1.73;;
7929;SDS011;4010;42.698;23.124;2022-08-03T09:18:51;1.80;;;1.70;;
7929;SDS011;4010;42.698;23.124;2022-08-03T09:21:21;2.00;;;1.80;;
7929;SDS011;4010;42.698;23.124;2022-08-03T09:23:49;2.70;;;1.80;;
7929;SDS011;4010;42.698;23.124;2022-08-03T09:26:21;3.20;;;2.00;;
7929;SDS011;4010;42.698;23.124;2022-08-03T09:28:56;2.33;;;2.17;;
7929;SDS011;4010;42.698;23.124;2022-08-03T09:31:30;2.10;;;1.90;;
7929;SDS011;4010;42.698;23.124;2022-08-03T09:33:59;2.43;;;2.03;;
7929;SDS011;4010;42.698;23.124;2022-08-03T09:36:36;1.90;;;1.77;;
7929;SDS011;4010;42.698;23.124;2022-08-03T09:39:04;2.00;;;1.90;;
7929;SDS011;4010;42.698;23.124;2022-08-03T09:41:35;1.93;;;1.67;;
7929;SDS011;4010;42.698;23.124;2022-08-03T09:44:02;1.90;;;1.77;;
7929;SDS011;4010;42.698;23.124;2022-08-03T09:46:29;1.90;;;1.80;;
7929;SDS011;4010;42.698;23.124;2022-08-03T09:49:09;3.20;;;2.00;;
7929;SDS011;4010;42.698;23.124;2022-08-03T09:51:38;2.20;;;1.80;;
7929;SDS011;4010;42.698;23.124;2022-08-03T09:54:05;2.97;;;2.20;;
7929;SDS011;4010;42.698;23.124;2022-08-03T09:56:42;1.83;;;1.73;;
7929;SDS011;4010;42.698;23.124;2022-08-03T09:59:12;2.40;;;2.20;;
7929;SDS011;4010;42.698;23.124;2022-08-03T10:01:47;1.95;;;1.85;;
7929;SDS011;4010;42.698;23.124;2022-08-03T10:04:14;2.13;;;2.03;;
7929;SDS011;4010;42.698;23.124;2022-08-03T10:06:43;2.90;;;2.17;;
7929;SDS011;4010;42.698;23.124;2022-08-03T10:09:11;4.13;;;2.83;;
7929;SDS011;4010;42.698;23.124;2022-08-03T10:11:40;2.70;;;2.50;;
7929;SDS011;4010;42.698;23.124;2022-08-03T10:14:08;3.13;;;2.93;;
7929;SDS011;4010;42.698;23.124;2022-08-03T10:16:42;3.60;;;3.30;;
7929;SDS011;4010;42.698;23.124;2022-08-03T10:19:10;3.30;;;3.00;;
7929;SDS011;4010;42.698;23.124;2022-08-03T10:21:39;3.40;;;3.10;;
7929;SDS011;4010;42.698;23.124;2022-08-03T10:24:08;4.47;;;3.00;;
7929;SDS011;4010;42.698;23.124;2022-08-03T10:26:37;3.07;;;2.77;;
7929;SDS011;4010;42.698;23.124;2022-08-03T10:29:08;2.53;;;2.30;;
7929;SDS011;4010;42.698;23.124;2022-08-03T10:31:43;2.90;;;2.70;;
7929;SDS011;4010;42.698;23.124;2022-08-03T10:34:14;2.40;;;2.30;;
7929;SDS011;4010;42.698;23.124;2022-08-03T10:36:48;3.47;;;3.17;;
7929;SDS011;4010;42.698;23.124;2022-08-03T10:39:21;3.33;;;3.13;;
7929;SDS011;4010;42.698;23.124;2022-08-03T10:41:49;2.70;;;2.53;;
7929;SDS011;4010;42.698;23.124;2022-08-03T10:44:19;3.07;;;2.80;;
7929;SDS011;4010;42.698;23.124;2022-08-03T10:46:48;3.07;;;2.87;;
7929;SDS011;4010;42.698;23.124;2022-08-03T10:49:16;3.60;;;3.00;;
7929;SDS011;4010;42.698;23.124;2022-08-03T10:51:45;3.20;;;3.00;;
7929;SDS011;4010;42.698;23.124;2022-08-03T11:00:15;3.13;;;2.80;;
7929;SDS011;4010;42.698;23.124;2022-08-03T11:03:05;3.20;;;3.00;;
7929;SDS011;4010;42.698;23.124;2022-08-03T11:05:37;3.50;;;3.20;;
7929;SDS011;4010;42.698;23.124;2022-08-03T11:08:22;2.77;;;2.57;;
7929;SDS011;4010;42.698;23.124;2022-08-03T11:10:52;2.83;;;2.63;;
7929;SDS011;4010;42.698;23.124;2022-08-03T11:13:21;3.10;;;2.90;;
7929;SDS011;4010;42.698;23.124;2022-08-03T11:15:50;3.00;;;2.63;;
7929;SDS011;4010;42.698;23.124;2022-08-03T11:18:18;2.83;;;2.63;;
7929;SDS011;4010;42.698;23.124;2022-08-03T11:20:46;3.70;;;2.40;;
7929;SDS011;4010;42.698;23.124;2022-08-03T11:23:14;2.20;;;2.00;;
7929;SDS011;4010;42.698;23.124;2022-08-03T11:28:39;2.83;;;2.43;;
7929;SDS011;4010;42.698;23.124;2022-08-03T11:34:22;3.67;;;2.27;;
7929;SDS011;4010;42.698;23.124;2022-08-03T11:39:52;2.57;;;2.37;;
7929;SDS011;4010;42.698;23.124;2022-08-03T11:42:41;3.60;;;3.10;;
7929;SDS011;4010;42.698;23.124;2022-08-03T11:45:12;3.90;;;3.03;;
7929;SDS011;4010;42.698;23.124;2022-08-03T11:47:39;6.57;;;3.80;;
7929;SDS011;4010;42.698;23.124;2022-08-03T11:50:07;4.50;;;3.90;;
7929;SDS011;4010;42.698;23.124;2022-08-03T11:52:35;6.07;;;4.13;;
7929;SDS011;4010;42.698;23.124;2022-08-03T11:55:10;5.10;;;4.27;;
7929;SDS011;4010;42.698;23.124;2022-08-03T11:57:38;5.63;;;4.33;;
7929;SDS011;4010;42.698;23.124;2022-08-03T12:00:23;6.20;;;4.53;;
7929;SDS011;4010;42.698;23.124;2022-08-03T12:02:55;8.30;;;4.97;;
7929;SDS011;4010;42.698;23.124;2022-08-03T12:05:34;5.30;;;4.80;;
7929;SDS011;4010;42.698;23.124;2022-08-03T12:08:04;4.13;;;3.83;;
7929;SDS011;4010;42.698;23.124;2022-08-03T12:10:32;4.50;;;3.40;;
7929;SDS011;4010;42.698;23.124;2022-08-03T12:13:01;4.17;;;3.87;;
7929;SDS011;4010;42.698;23.124;2022-08-03T12:15:30;4.07;;;3.47;;
7929;SDS011;4010;42.698;23.124;2022-08-03T12:17:59;3.43;;;3.13;;
7929;SDS011;4010;42.698;23.124;2022-08-03T12:20:27;4.03;;;3.40;;
7929;SDS011;4010;42.698;23.124;2022-08-03T12:23:00;3.10;;;2.90;;
7929;SDS011;4010;42.698;23.124;2022-08-03T12:25:28;3.37;;;3.07;;
7929;SDS011;4010;42.698;23.124;2022-08-03T12:28:04;3.30;;;3.10;;
7929;SDS011;4010;42.698;23.124;2022-08-03T12:30:32;3.10;;;2.90;;
7929;SDS011;4010;42.698;23.124;2022-08-03T12:33:09;3.07;;;2.87;;
7929;SDS011;4010;42.698;23.124;2022-08-03T12:35:37;4.00;;;3.10;;
7929;SDS011;4010;42.698;23.124;2022-08-03T12:38:04;3.37;;;3.17;;
7929;SDS011;4010;42.698;23.124;2022-08-03T12:40:31;3.27;;;3.07;;
7929;SDS011;4010;42.698;23.124;2022-08-03T12:42:59;3.53;;;3.33;;
7929;SDS011;4010;42.698;23.124;2022-08-03T12:45:27;3.30;;;3.10;;
7929;SDS011;4010;42.698;23.124;2022-08-03T12:47:56;3.37;;;3.17;;
7929;SDS011;4010;42.698;23.124;2022-08-03T12:50:25;3.23;;;2.93;;
7929;SDS011;4010;42.698;23.124;2022-08-03T12:52:53;3.20;;;3.00;;
7929;SDS011;4010;42.698;23.124;2022-08-03T12:55:21;3.10;;;2.90;;
7929;SDS011;4010;42.698;23.124;2022-08-03T12:57:48;3.27;;;3.07;;
7929;SDS011;4010;42.698;23.124;2022-08-03T13:00:17;3.63;;;3.33;;
7929;SDS011;4010;42.698;23.124;2022-08-03T13:02:44;5.27;;;2.60;;
7929;SDS011;4010;42.698;23.124;2022-08-03T13:05:12;3.27;;;3.07;;
7929;SDS011;4010;42.698;23.124;2022-08-03T13:07:39;2.90;;;2.70;;
7929;SDS011;4010;42.698;23.124;2022-08-03T13:10:07;4.20;;;2.97;;
7929;SDS011;4010;42.698;23.124;2022-08-03T13:12:44;3.00;;;2.80;;
7929;SDS011;4010;42.698;23.124;2022-08-03T13:15:12;3.10;;;2.90;;
7929;SDS011;4010;42.698;23.124;2022-08-03T13:17:40;3.30;;;3.03;;
7929;SDS011;4010;42.698;23.124;2022-08-03T13:20:08;2.97;;;2.77;;
7929;SDS011;4010;42.698;23.124;2022-08-03T13:22:35;3.10;;;2.90;;
7929;SDS011;4010;42.698;23.124;2022-08-03T13:25:02;3.30;;;3.00;;
7929;SDS011;4010;42.698;23.124;2022-08-03T13:27:29;3.17;;;2.97;;
7929;SDS011;4010;42.698;23.124;2022-08-03T13:29:56;3.70;;;2.70;;
7929;SDS011;4010;42.698;23.124;2022-08-03T13:32:23;3.00;;;2.80;;
7929;SDS011;4010;42.698;23.124;2022-08-03T13:34:51;2.80;;;2.60;;
7929;SDS011;4010;42.698;23.124;2022-08-03T13:37:18;3.13;;;2.93;;
7929;SDS011;4010;42.698;23.124;2022-08-03T13:39:45;2.97;;;2.77;;
7929;SDS011;4010;42.698;23.124;2022-08-03T13:42:12;3.00;;;2.70;;
7929;SDS011;4010;42.698;23.124;2022-08-03T13:44:38;3.20;;;3.00;;
7929;SDS011;4010;42.698;23.124;2022-08-03T13:47:05;3.17;;;2.70;;
7929;SDS011;4010;42.698;23.124;2022-08-03T13:49:32;3.20;;;3.00;;
7929;SDS011;4010;42.698;23.124;2022-08-03T13:52:01;3.30;;;3.00;;
7929;SDS011;4010;42.698;23.124;2022-08-03T13:54:28;4.77;;;2.80;;
7929;SDS011;4010;42.698;23.124;2022-08-03T13:56:55;3.17;;;2.80;;
7929;SDS011;4010;42.698;23.124;2022-08-03T13:59:22;2.70;;;2.50;;
7929;SDS011;4010;42.698;23.124;2022-08-03T14:01:50;4.70;;;2.67;;
7929;SDS011;4010;42.698;23.124;2022-08-03T14:04:18;3.20;;;2.93;;
7929;SDS011;4010;42.698;23.124;2022-08-03T14:06:45;3.00;;;2.70;;
7929;SDS011;4010;42.698;23.124;2022-08-03T14:09:13;2.70;;;2.60;;
7929;SDS011;4010;42.698;23.124;2022-08-03T14:11:40;2.73;;;2.53;;
7929;SDS011;4010;42.698;23.124;2022-08-03T14:14:07;2.50;;;2.40;;
7929;SDS011;4010;42.698;23.124;2022-08-03T14:16:34;2.73;;;2.63;;
7929;SDS011;4010;42.698;23.124;2022-08-03T14:19:01;3.00;;;2.80;;
7929;SDS011;4010;42.698;23.124;2022-08-03T14:21:28;3.17;;;2.90;;
7929;SDS011;4010;42.698;23.124;2022-08-03T14:23:55;2.87;;;2.63;;
7929;SDS011;4010;42.698;23.124;2022-08-03T14:26:23;2.50;;;2.30;;
7929;SDS011;4010;42.698;23.124;2022-08-03T14:29:01;3.07;;;2.87;;
7929;SDS011;4010;42.698;23.124;2022-08-03T14:31:28;2.50;;;2.40;;
7929;SDS011;4010;42.698;23.124;2022-08-03T14:33:55;3.00;;;2.80;;
7929;SDS011;4010;42.698;23.124;2022-08-03T14:36:22;3.17;;;2.97;;
7929;SDS011;4010;42.698;23.124;2022-08-03T14:38:49;2.93;;;2.73;;
7929;SDS011;4010;42.698;23.124;2022-08-03T14:41:16;3.40;;;2.97;;
7929;SDS011;4010;42.698;23.124;2022-08-03T14:43:44;3.20;;;2.90;;
7929;SDS011;4010;42.698;23.124;2022-08-03T14:46:11;2.77;;;2.57;;
7929;SDS011;4010;42.698;23.124;2022-08-03T14:48:37;3.10;;;2.90;;
7929;SDS011;4010;42.698;23.124;2022-08-03T14:51:04;3.27;;;2.50;;
7929;SDS011;4010;42.698;23.124;2022-08-03T14:53:31;2.73;;;2.53;;
7929;SDS011;4010;42.698;23.124;2022-08-03T14:55:59;2.80;;;2.60;;
7929;SDS011;4010;42.698;23.124;2022-08-03T14:58:26;4.20;;;2.30;;
7929;SDS011;4010;42.698;23.124;2022-08-03T15:00:54;3.00;;;2.53;;
7929;SDS011;4010;42.698;23.124;2022-08-03T15:03:21;2.57;;;2.37;;
7929;SDS011;4010;42.698;23.124;2022-08-03T15:05:49;3.17;;;2.40;;
7929;SDS011;4010;42.698;23.124;2022-08-03T15:08:17;3.30;;;3.03;;
7929;SDS011;4010;42.698;23.124;2022-08-03T15:10:44;2.50;;;2.30;;
7929;SDS011;4010;42.698;23.124;2022-08-03T15:13:12;2.33;;;2.23;;
7929;SDS011;4010;42.698;23.124;2022-08-03T15:15:39;2.77;;;2.57;;
7929;SDS011;4010;42.698;23.124;2022-08-03T15:18:07;4.30;;;2.20;;
7929;SDS011;4010;42.698;23.124;2022-08-03T15:20:34;2.93;;;2.73;;
7929;SDS011;4010;42.698;23.124;2022-08-03T15:23:01;3.20;;;2.50;;
7929;SDS011;4010;42.698;23.124;2022-08-03T15:25:28;2.50;;;2.30;;
7929;SDS011;4010;42.698;23.124;2022-08-03T15:27:55;2.37;;;2.23;;